Time;durP1;ratioP1;P1;durP2;ratioP2;P2;SDS_P1;SDS_P2;PMS_P1;PMS_P2;Temp;Humidity;BMP_temperature;BMP_pressure;BME280_temperature;BME280_humidity;BME280_pressure;Samples;Min_cycle;Max_cycle;Signal;HPM_P1;HPM_P2
2021/05/15 00:01:14;;;;;;;4.73;4.30;;;12.10;99.90;;;;;;4919737;29;20209;-71
2021/05/15 00:03:39;;;;;;;4.33;3.67;;;12.00;99.90;;;;;;4918842;29;20542;-71
2021/05/15 00:06:05;;;;;;;3.97;3.60;;;12.00;99.90;;;;;;4919420;29;20653;-71
2021/05/15 00:08:31;;;;;;;3.93;3.60;;;12.00;99.90;;;;;;4921101;29;20566;-71
2021/05/15 00:10:57;;;;;;;5.00;3.80;;;11.90;99.90;;;;;;4919910;29;20510;-71
2021/05/15 00:13:24;;;;;;;4.07;3.70;;;11.80;99.90;;;;;;4919477;29;20517;-71
2021/05/15 00:15:50;;;;;;;4.97;3.70;;;11.80;99.90;;;;;;4919171;29;20533;-71
2021/05/15 00:18:16;;;;;;;4.43;3.83;;;11.80;99.90;;;;;;4919782;29;20723;-71
2021/05/15 00:20:41;;;;;;;4.13;3.77;;;11.80;99.90;;;;;;4920975;29;20465;-70
2021/05/15 00:23:07;;;;;;;4.80;3.93;;;11.70;99.90;;;;;;4919218;29;20187;-71
2021/05/15 00:25:32;;;;;;;3.60;3.20;;;11.70;99.90;;;;;;4919266;29;20242;-70
2021/05/15 00:27:59;;;;;;;3.90;3.60;;;11.70;99.90;;;;;;4919791;29;20676;-71
2021/05/15 00:30:24;;;;;;;3.77;3.40;;;11.80;99.90;;;;;;4919784;29;20186;-71
2021/05/15 00:32:50;;;;;;;4.53;3.60;;;11.80;99.90;;;;;;4919130;29;20831;-71
2021/05/15 00:35:15;;;;;;;3.80;3.50;;;11.70;99.90;;;;;;4918926;29;20579;-71
2021/05/15 00:37:41;;;;;;;4.20;3.37;;;11.70;99.90;;;;;;4922608;29;20186;-71
2021/05/15 00:40:08;;;;;;;4.80;3.60;;;11.80;99.90;;;;;;4938365;29;20201;-72
2021/05/15 00:42:35;;;;;;;4.55;4.05;;;11.70;99.90;;;;;;4938080;29;20496;-71
2021/05/15 00:45:02;;;;;;;5.30;4.43;;;11.60;99.90;;;;;;4937904;28;20269;-70
2021/05/15 00:47:27;;;;;;;4.70;4.30;;;11.50;99.90;;;;;;4937290;29;20741;-70
2021/05/15 00:49:53;;;;;;;4.13;3.73;;;11.40;99.90;;;;;;4937917;29;20437;-70
2021/05/15 00:52:20;;;;;;;4.30;4.00;;;11.40;99.90;;;;;;4937893;29;20171;-70
2021/05/15 00:54:46;;;;;;;4.70;3.63;;;11.50;99.90;;;;;;4938049;29;20438;-70
2021/05/15 00:57:13;;;;;;;3.63;3.33;;;11.40;99.90;;;;;;4937563;28;20485;-71
2021/05/15 00:59:40;;;;;;;5.33;3.97;;;11.40;99.90;;;;;;4936195;29;20868;-71
2021/05/15 01:02:09;;;;;;;3.93;3.63;;;11.30;99.90;;;;;;4937923;29;20497;-71
2021/05/15 01:04:35;;;;;;;5.33;4.13;;;11.30;99.90;;;;;;4937551;29;20434;-71
2021/05/15 01:07:02;;;;;;;3.70;3.40;;;11.30;99.90;;;;;;4937784;29;20402;-71
2021/05/15 01:09:27;;;;;;;4.03;3.60;;;11.30;99.90;;;;;;4935906;29;20768;-71
2021/05/15 01:11:53;;;;;;;4.50;4.10;;;11.30;99.90;;;;;;4937401;29;20425;-72
2021/05/15 01:14:18;;;;;;;4.20;3.90;;;11.20;99.90;;;;;;4937374;28;20305;-71
2021/05/15 01:16:44;;;;;;;6.30;4.73;;;11.20;99.90;;;;;;4937341;29;20206;-72
2021/05/15 01:19:13;;;;;;;5.20;4.70;;;11.20;99.90;;;;;;4937501;29;20186;-71
2021/05/15 01:21:39;;;;;;;5.07;4.57;;;11.20;99.90;;;;;;4935682;29;20242;-71
2021/05/15 01:24:05;;;;;;;5.07;4.53;;;11.20;99.90;;;;;;4936925;29;20434;-72
2021/05/15 01:26:32;;;;;;;5.47;4.83;;;11.30;99.90;;;;;;4936994;28;20190;-72
2021/05/15 01:29:00;;;;;;;4.97;4.47;;;11.30;99.90;;;;;;4937363;29;20766;-72
2021/05/15 01:31:27;;;;;;;5.10;4.70;;;11.30;99.90;;;;;;4934727;29;20429;-72
2021/05/15 01:33:52;;;;;;;4.87;4.57;;;11.20;99.90;;;;;;4937298;29;20175;-71
2021/05/15 01:36:21;;;;;;;5.70;5.17;;;11.20;99.90;;;;;;4937111;29;20438;-72
2021/05/15 01:38:47;;;;;;;8.50;6.47;;;11.20;99.90;;;;;;4937257;29;20174;-72
2021/05/15 01:41:15;;;;;;;6.03;5.53;;;11.10;99.90;;;;;;4935830;29;20468;-72
2021/05/15 01:43:41;;;;;;;8.40;7.17;;;11.20;99.90;;;;;;4950796;29;20468;-71
2021/05/15 01:46:07;;;;;;;8.37;7.50;;;11.20;99.90;;;;;;4936380;28;20515;-72
2021/05/15 01:48:34;;;;;;;8.00;6.07;;;11.20;99.90;;;;;;4936450;29;20513;-72
2021/05/15 01:51:00;;;;;;;7.50;6.80;;;11.10;99.90;;;;;;4935075;29;20762;-72
2021/05/15 01:53:28;;;;;;;7.87;7.17;;;11.00;99.90;;;;;;4936430;29;20422;-72
2021/05/15 01:55:55;;;;;;;7.30;6.60;;;11.10;99.90;;;;;;4936620;29;20442;-71
2021/05/15 01:58:20;;;;;;;6.90;6.30;;;11.10;99.90;;;;;;4936631;29;20501;-72
2021/05/15 02:00:46;;;;;;;8.00;7.27;;;11.00;99.90;;;;;;4936524;29;20565;-72
2021/05/15 02:03:12;;;;;;;7.03;6.50;;;11.00;99.90;;;;;;4935087;29;20576;-70
2021/05/15 02:05:37;;;;;;;7.30;6.60;;;11.00;99.90;;;;;;4936343;29;20194;-72
2021/05/15 02:08:03;;;;;;;7.13;6.53;;;10.90;99.90;;;;;;4936464;29;20210;-72
2021/05/15 02:10:29;;;;;;;6.90;6.20;;;10.90;99.90;;;;;;4936300;29;20229;-72
2021/05/15 02:12:55;;;;;;;8.50;7.07;;;11.00;99.90;;;;;;4934636;29;20896;-72
2021/05/15 02:15:20;;;;;;;6.47;5.80;;;11.10;99.90;;;;;;4936154;29;20216;-72
2021/05/15 02:17:46;;;;;;;5.13;4.73;;;11.10;99.90;;;;;;4936264;28;20189;-72
2021/05/15 02:20:12;;;;;;;5.53;4.80;;;11.10;99.90;;;;;;4936232;29;20560;-72
2021/05/15 02:22:38;;;;;;;5.43;4.80;;;11.10;99.90;;;;;;4934627;29;20639;-72
2021/05/15 02:25:04;;;;;;;4.60;4.20;;;11.10;99.90;;;;;;4935871;29;20549;-72
2021/05/15 02:27:30;;;;;;;4.03;3.73;;;11.10;99.90;;;;;;4936628;29;20250;-72
2021/05/15 02:29:55;;;;;;;3.83;3.53;;;11.10;99.90;;;;;;4936007;29;20445;-72
2021/05/15 02:32:21;;;;;;;4.13;3.67;;;11.10;99.90;;;;;;4936045;29;20647;-72
2021/05/15 02:34:46;;;;;;;3.33;3.10;;;11.00;99.90;;;;;;4934351;29;20210;-72
2021/05/15 02:37:12;;;;;;;3.60;3.30;;;11.10;99.90;;;;;;4936025;29;20531;-72
2021/05/15 02:39:38;;;;;;;3.70;3.40;;;11.10;99.90;;;;;;4936158;29;20202;-72
2021/05/15 02:42:04;;;;;;;3.90;3.60;;;11.20;99.90;;;;;;4936250;29;20183;-72
2021/05/15 02:44:29;;;;;;;3.50;3.20;;;11.40;99.90;;;;;;4934126;29;20202;-72
2021/05/15 02:46:54;;;;;;;4.10;3.63;;;11.40;99.90;;;;;;4944045;29;20417;-70
2021/05/15 02:49:20;;;;;;;3.10;2.90;;;11.60;99.90;;;;;;4938600;28;20205;-72
2021/05/15 02:51:46;;;;;;;4.00;3.60;;;11.60;99.90;;;;;;4936064;29;20182;-72
2021/05/15 02:54:11;;;;;;;3.40;3.10;;;11.70;99.90;;;;;;4936000;29;20178;-72
2021/05/15 02:56:37;;;;;;;3.10;2.90;;;11.70;99.90;;;;;;4934335;29;20183;-72
2021/05/15 02:59:02;;;;;;;4.63;3.00;;;11.80;99.90;;;;;;4936076;29;20202;-72
2021/05/15 03:01:28;;;;;;;3.40;3.20;;;11.90;99.90;;;;;;4937280;29;20258;-72
2021/05/15 03:03:53;;;;;;;3.10;2.90;;;11.90;99.90;;;;;;4939277;29;20170;-72
2021/05/15 03:06:19;;;;;;;3.80;3.40;;;11.90;99.90;;;;;;4938367;29;20206;-72
2021/05/15 03:08:45;;;;;;;3.65;3.35;;;12.00;99.90;;;;;;4940654;29;20417;-72
2021/05/15 03:11:10;;;;;;;2.90;2.70;;;12.10;99.90;;;;;;4944408;29;20174;-70
2021/05/15 03:13:36;;;;;;;3.10;2.90;;;12.10;99.90;;;;;;4945327;29;20546;-71
2021/05/15 03:16:01;;;;;;;3.00;2.70;;;12.10;99.90;;;;;;4939990;29;20218;-72
2021/05/15 03:18:27;;;;;;;4.60;3.50;;;12.10;99.90;;;;;;4920361;29;20183;-72
2021/05/15 03:20:52;;;;;;;4.00;3.60;;;12.20;99.90;;;;;;4920237;29;20680;-72
2021/05/15 03:23:18;;;;;;;3.70;3.40;;;12.20;99.90;;;;;;4920209;29;20222;-72
2021/05/15 03:25:43;;;;;;;4.00;3.30;;;12.20;99.90;;;;;;4920379;29;20319;-72
2021/05/15 03:28:09;;;;;;;3.23;3.03;;;12.10;99.90;;;;;;4921002;29;20191;-70
2021/05/15 03:30:35;;;;;;;3.67;3.37;;;12.20;99.90;;;;;;4920270;29;20206;-70
2021/05/15 03:33:00;;;;;;;2.80;2.60;;;12.10;99.90;;;;;;4920351;29;20190;-70
2021/05/15 03:35:27;;;;;;;2.80;2.60;;;12.10;99.90;;;;;;4920588;29;20556;-70
2021/05/15 03:37:53;;;;;;;4.30;3.10;;;12.10;99.90;;;;;;4923364;29;20667;-70
2021/05/15 03:40:19;;;;;;;3.63;3.33;;;12.20;99.90;;;;;;4921415;29;20462;-71
2021/05/15 03:42:47;;;;;;;3.20;3.00;;;12.20;99.90;;;;;;4919977;29;20176;-71
2021/05/15 03:45:13;;;;;;;3.50;3.20;;;12.20;99.90;;;;;;4919658;29;20522;-71
2021/05/15 03:47:40;;;;;;;2.93;2.73;;;12.20;99.90;;;;;;4919628;29;20897;-70
2021/05/15 03:50:06;;;;;;;3.33;2.90;;;12.30;99.90;;;;;;4937636;29;20182;-71
2021/05/15 03:52:32;;;;;;;2.97;2.77;;;12.30;99.90;;;;;;4938721;29;20422;-71
2021/05/15 03:54:58;;;;;;;2.93;2.60;;;12.30;99.90;;;;;;4938682;29;20442;-70
2021/05/15 03:57:23;;;;;;;3.90;2.83;;;12.40;99.90;;;;;;4938994;29;20265;-70
2021/05/15 03:59:49;;;;;;;3.17;2.87;;;12.40;99.90;;;;;;4937160;29;20210;-71
2021/05/15 04:02:14;;;;;;;3.17;2.97;;;12.40;99.90;;;;;;4938471;29;20182;-70
2021/05/15 04:04:40;;;;;;;2.73;2.53;;;12.40;99.90;;;;;;4938318;29;20195;-70
2021/05/15 04:07:05;;;;;;;3.37;3.07;;;12.40;99.90;;;;;;4937889;28;20429;-71
2021/05/15 04:09:31;;;;;;;3.27;2.80;;;12.40;99.90;;;;;;4936951;29;20411;-70
2021/05/15 04:11:58;;;;;;;3.43;3.13;;;12.40;99.90;;;;;;4938171;29;20163;-71
2021/05/15 04:19:15;;;;;;;3.20;3.00;;;12.40;99.90;;;;;;4937919;29;20539;-70
2021/05/15 04:21:41;;;;;;;3.73;3.43;;;12.40;99.90;;;;;;4936562;29;20426;-70
2021/05/15 04:24:07;;;;;;;3.30;3.10;;;12.40;99.90;;;;;;4938095;29;20234;-70
2021/05/15 04:26:32;;;;;;;3.40;3.20;;;12.40;99.90;;;;;;4936673;29;20186;-71
2021/05/15 04:28:59;;;;;;;4.03;3.67;;;12.40;99.90;;;;;;4938092;29;20901;-70
2021/05/15 04:31:25;;;;;;;3.60;3.30;;;12.50;99.90;;;;;;4936339;29;20190;-71
2021/05/15 04:33:50;;;;;;;3.27;3.00;;;12.50;99.90;;;;;;4938168;29;20729;-71
2021/05/15 04:36:16;;;;;;;2.90;2.70;;;12.50;99.90;;;;;;4937706;29;20224;-71
2021/05/15 04:38:41;;;;;;;3.53;3.23;;;12.50;99.90;;;;;;4937265;28;20181;-72
2021/05/15 04:41:07;;;;;;;3.37;3.07;;;12.50;99.90;;;;;;4938139;29;20256;-71
2021/05/15 04:43:32;;;;;;;3.53;3.23;;;12.50;99.90;;;;;;4938624;29;20174;-71
2021/05/15 04:45:58;;;;;;;3.10;2.90;;;12.50;99.90;;;;;;4937758;29;20321;-71
2021/05/15 04:48:23;;;;;;;3.97;3.57;;;12.60;99.90;;;;;;4937324;29;20181;-71
2021/05/15 04:50:49;;;;;;;4.73;3.40;;;12.60;99.90;;;;;;4936397;29;20185;-71
2021/05/15 04:53:14;;;;;;;3.77;3.37;;;12.60;99.90;;;;;;4937515;29;20170;-71
2021/05/15 04:55:40;;;;;;;3.40;3.10;;;12.60;99.90;;;;;;4937428;29;20194;-71
2021/05/15 04:58:05;;;;;;;3.87;3.57;;;12.60;99.90;;;;;;4937053;28;20280;-71
2021/05/15 05:00:31;;;;;;;3.47;3.17;;;12.70;99.90;;;;;;4936024;29;20224;-71
2021/05/15 05:02:57;;;;;;;3.73;3.50;;;12.70;99.90;;;;;;4937367;29;20249;-71
2021/05/15 05:05:22;;;;;;;3.40;3.20;;;12.70;99.90;;;;;;4937442;29;20662;-70
2021/05/15 05:07:48;;;;;;;3.93;3.60;;;12.70;99.90;;;;;;4937497;29;20175;-70
2021/05/15 05:10:14;;;;;;;3.97;3.77;;;12.70;99.90;;;;;;4937453;29;20222;-70
2021/05/15 05:12:40;;;;;;;4.47;4.07;;;12.60;99.90;;;;;;4935954;29;20197;-70
2021/05/15 05:15:06;;;;;;;3.77;3.47;;;12.60;99.90;;;;;;4939080;29;20947;-71
2021/05/15 05:17:32;;;;;;;3.93;3.53;;;12.60;99.90;;;;;;4948673;29;20193;-70
2021/05/15 05:19:57;;;;;;;4.20;3.80;;;12.60;99.90;;;;;;4948938;29;20461;-70
2021/05/15 05:22:23;;;;;;;4.90;4.30;;;12.60;99.90;;;;;;4931293;29;20190;-70
2021/05/15 05:24:48;;;;;;;4.73;4.40;;;12.60;99.90;;;;;;4917279;29;20191;-70
2021/05/15 05:27:14;;;;;;;4.40;4.10;;;12.60;99.90;;;;;;4918166;29;20612;-70
2021/05/15 05:29:40;;;;;;;4.20;3.90;;;12.70;99.90;;;;;;4918260;29;20175;-71
2021/05/15 05:32:08;;;;;;;4.00;3.70;;;12.60;99.90;;;;;;4919192;29;20454;-71
2021/05/15 05:34:38;;;;;;;4.20;3.90;;;12.60;99.90;;;;;;4917703;29;20199;-71
2021/05/15 05:37:04;;;;;;;4.80;4.40;;;12.70;99.90;;;;;;4918002;29;20419;-71
2021/05/15 05:39:30;;;;;;;4.20;3.90;;;12.70;99.90;;;;;;4917529;29;20407;-71
2021/05/15 05:41:56;;;;;;;4.10;3.70;;;12.70;99.90;;;;;;4917541;29;20443;-71
2021/05/15 05:44:21;;;;;;;4.20;3.80;;;12.70;99.90;;;;;;4918668;29;20489;-72
2021/05/15 05:46:47;;;;;;;4.37;3.97;;;12.70;99.90;;;;;;4917919;29;20175;-71
2021/05/15 05:49:12;;;;;;;4.50;4.10;;;12.70;99.90;;;;;;4917586;29;20707;-71
2021/05/15 05:51:38;;;;;;;4.00;3.60;;;12.70;99.90;;;;;;4917694;29;20174;-71
2021/05/15 05:54:04;;;;;;;4.07;3.63;;;12.60;99.90;;;;;;4918393;29;20218;-71
2021/05/15 05:56:30;;;;;;;5.10;4.70;;;12.70;99.90;;;;;;4917536;29;20207;-71
2021/05/15 05:58:56;;;;;;;4.50;3.88;;;12.70;99.90;;;;;;4931947;29;20458;-72
2021/05/15 06:01:22;;;;;;;4.23;3.93;;;12.80;99.90;;;;;;4917359;29;20272;-70
2021/05/15 06:03:48;;;;;;;3.93;3.63;;;12.80;99.90;;;;;;4917578;29;20422;-72
2021/05/15 06:06:14;;;;;;;4.43;4.07;;;12.80;99.90;;;;;;4923996;29;20873;-69
2021/05/15 06:08:39;;;;;;;4.50;4.10;;;12.80;99.90;;;;;;4920270;29;20475;-71
2021/05/15 06:11:06;;;;;;;4.73;4.33;;;12.90;99.90;;;;;;4917059;29;20182;-71
2021/05/15 06:13:32;;;;;;;4.67;4.30;;;12.90;99.90;;;;;;4917141;29;20517;-71
2021/05/15 06:15:57;;;;;;;4.13;3.83;;;12.90;99.90;;;;;;4918271;29;20477;-71
2021/05/15 06:18:23;;;;;;;5.20;4.70;;;12.90;99.90;;;;;;4917449;29;20920;-71
2021/05/15 06:20:48;;;;;;;4.97;4.57;;;12.90;99.90;;;;;;4917369;29;20664;-71
2021/05/15 06:23:15;;;;;;;4.50;4.20;;;13.00;99.90;;;;;;4917072;29;20617;-71
2021/05/15 06:25:40;;;;;;;4.80;4.40;;;12.90;99.90;;;;;;4918359;29;20652;-73
2021/05/15 06:28:06;;;;;;;4.50;4.20;;;13.00;99.90;;;;;;4917101;29;20439;-71
2021/05/15 06:30:32;;;;;;;5.00;4.60;;;13.00;99.90;;;;;;4920495;29;20250;-70
2021/05/15 06:32:58;;;;;;;5.27;4.80;;;13.00;99.90;;;;;;4922301;29;20182;-71
2021/05/15 06:35:25;;;;;;;4.77;4.37;;;13.00;99.90;;;;;;4922239;29;20194;-72
2021/05/15 06:38:05;;;;;;;4.53;4.23;;;13.00;99.90;;;;;;4942349;29;20190;-72
2021/05/15 06:40:31;;;;;;;4.90;4.40;;;13.00;99.90;;;;;;4922452;29;20477;-72
2021/05/15 06:42:57;;;;;;;4.80;4.50;;;13.00;99.90;;;;;;4920304;29;20438;-72
2021/05/15 06:45:22;;;;;;;4.40;3.97;;;13.00;99.90;;;;;;4920858;29;20435;-71
2021/05/15 06:47:48;;;;;;;5.33;4.83;;;13.00;99.90;;;;;;4920727;29;20430;-72
2021/05/15 06:50:14;;;;;;;5.43;4.93;;;13.00;99.90;;;;;;4926228;29;20206;-72
2021/05/15 06:52:39;;;;;;;4.87;4.47;;;12.90;99.90;;;;;;4924442;29;20183;-72
2021/05/15 06:55:06;;;;;;;4.80;4.40;;;12.90;99.90;;;;;;4936524;29;20198;-72
2021/05/15 06:57:32;;;;;;;5.67;5.17;;;13.00;99.90;;;;;;4937786;29;20613;-72
2021/05/15 06:59:58;;;;;;;5.77;5.07;;;13.00;99.90;;;;;;4939575;29;20453;-72
2021/05/15 07:02:23;;;;;;;5.83;5.33;;;13.00;99.90;;;;;;4939455;29;20413;-72
2021/05/15 07:04:50;;;;;;;5.23;4.80;;;13.10;99.90;;;;;;4938896;28;20305;-72
2021/05/15 07:07:16;;;;;;;5.40;4.90;;;13.10;99.90;;;;;;4932054;29;20170;-72
2021/05/15 07:09:42;;;;;;;6.07;5.60;;;13.10;99.90;;;;;;4925941;29;20426;-72
2021/05/15 07:12:07;;;;;;;6.43;5.93;;;13.00;99.90;;;;;;4920178;29;20415;-72
2021/05/15 07:14:33;;;;;;;6.27;5.77;;;13.00;99.90;;;;;;4920005;29;20657;-74
2021/05/15 07:16:59;;;;;;;6.50;6.03;;;13.10;99.90;;;;;;4919997;29;20210;-72
2021/05/15 07:19:25;;;;;;;6.40;5.90;;;13.10;99.90;;;;;;4920694;29;20189;-72
2021/05/15 07:21:51;;;;;;;7.20;6.57;;;13.10;99.90;;;;;;4927039;29;20636;-73
2021/05/15 07:24:16;;;;;;;6.57;6.03;;;13.10;99.90;;;;;;4937473;29;20450;-72
2021/05/15 07:26:42;;;;;;;6.60;6.10;;;13.20;99.90;;;;;;4938804;28;20584;-72
2021/05/15 07:29:07;;;;;;;7.17;6.53;;;13.30;99.90;;;;;;4939042;29;20660;-72
2021/05/15 07:31:33;;;;;;;7.30;6.70;;;13.30;99.90;;;;;;4937897;29;20186;-72
2021/05/15 07:34:01;;;;;;;7.43;6.83;;;13.20;99.90;;;;;;4938435;29;20256;-72
2021/05/15 07:36:26;;;;;;;7.60;6.97;;;13.20;99.90;;;;;;4937997;29;20229;-74
2021/05/15 07:38:52;;;;;;;7.00;6.40;;;13.10;99.90;;;;;;4938280;29;20418;-72
2021/05/15 07:41:17;;;;;;;8.50;7.70;;;13.10;99.90;;;;;;4927195;29;20461;-71
2021/05/15 07:43:43;;;;;;;8.23;7.53;;;13.10;99.90;;;;;;4919371;29;20183;-71
2021/05/15 07:46:09;;;;;;;7.30;6.70;;;13.10;99.90;;;;;;4918862;29;20225;-72
2021/05/15 07:48:39;;;;;;;9.20;8.40;;;13.00;99.90;;;;;;4933538;29;21093;-71
2021/05/15 07:51:11;;;;;;;9.60;8.80;;;13.00;99.90;;;;;;4936753;29;20509;-71
2021/05/15 07:53:37;;;;;;;9.30;8.50;;;12.80;99.90;;;;;;4938657;29;20728;-71
2021/05/15 07:56:04;;;;;;;9.67;8.73;;;12.70;99.90;;;;;;4938800;29;20460;-72
2021/05/15 07:58:30;;;;;;;10.63;9.53;;;12.70;99.90;;;;;;4926988;29;20293;-72
2021/05/15 08:00:56;;;;;;;9.23;8.43;;;12.70;99.90;;;;;;4918866;29;20770;-72
2021/05/15 08:03:22;;;;;;;9.73;8.83;;;12.70;99.90;;;;;;4920736;29;20303;-71
2021/05/15 08:05:47;;;;;;;10.53;9.63;;;12.60;99.90;;;;;;4941694;29;20446;-71
2021/05/15 08:08:13;;;;;;;9.93;8.90;;;12.70;99.90;;;;;;4937738;29;20421;-71
2021/05/15 08:10:39;;;;;;;9.47;8.60;;;12.60;99.90;;;;;;4938414;29;20493;-72
2021/05/15 08:13:07;;;;;;;9.83;8.93;;;12.50;99.90;;;;;;4928266;29;20434;-71
2021/05/15 08:15:33;;;;;;;11.57;9.23;;;12.50;99.90;;;;;;4919115;29;20265;-71
2021/05/15 08:17:58;;;;;;;9.77;8.77;;;12.60;99.90;;;;;;4919027;29;20450;-71
2021/05/15 08:20:24;;;;;;;10.30;9.37;;;12.60;99.90;;;;;;4917842;29;20211;-71
2021/05/15 08:22:50;;;;;;;10.03;9.13;;;12.60;99.90;;;;;;4920852;29;20183;-71
2021/05/15 08:25:17;;;;;;;9.77;8.87;;;12.80;99.90;;;;;;4937561;29;20536;-74
2021/05/15 08:27:49;;;;;;;8.27;7.57;;;12.80;99.90;;;;;;4937379;29;20414;-71
2021/05/15 08:30:18;;;;;;;10.63;8.57;;;13.00;99.90;;;;;;4937732;29;20422;-72
2021/05/15 08:32:54;;;;;;;8.83;7.97;;;13.20;99.90;;;;;;4936922;28;20497;-72
2021/05/15 08:35:20;;;;;;;9.00;8.30;;;13.40;99.90;;;;;;4925481;29;20445;-71
2021/05/15 08:37:47;;;;;;;9.17;8.27;;;13.50;99.90;;;;;;4952338;29;20449;-71
2021/05/15 08:40:13;;;;;;;10.03;8.80;;;13.60;99.90;;;;;;4939142;29;20465;-71
2021/05/15 08:42:40;;;;;;;9.10;8.20;;;13.60;99.90;;;;;;4940309;29;20444;-71
2021/05/15 08:45:11;;;;;;;8.90;8.00;;;13.80;99.90;;;;;;4932481;29;20194;-71
2021/05/15 08:47:38;;;;;;;9.03;8.30;;;13.80;99.90;;;;;;4935295;29;20427;-71
2021/05/15 08:50:09;;;;;;;8.63;7.83;;;13.80;99.90;;;;;;4919516;29;20742;-72
2021/05/15 08:52:43;;;;;;;9.70;8.70;;;13.90;99.90;;;;;;4919572;29;20463;-72
2021/05/15 08:55:21;;;;;;;9.23;8.20;;;14.00;99.90;;;;;;4922103;29;20837;-73
2021/05/15 08:57:46;;;;;;;8.00;7.30;;;14.10;99.90;;;;;;4926982;29;20711;-71
2021/05/15 09:00:21;;;;;;;9.20;8.43;;;14.00;99.90;;;;;;4936081;29;20512;-71
2021/05/15 09:02:49;;;;;;;8.93;8.07;;;13.90;99.90;;;;;;4939147;29;20232;-72
2021/05/15 09:05:17;;;;;;;9.93;8.43;;;14.00;99.90;;;;;;4938683;29;20471;-72
2021/05/15 09:07:55;;;;;;;9.10;8.30;;;13.90;99.90;;;;;;4938757;29;20769;-71
2021/05/15 09:10:26;;;;;;;9.67;8.77;;;13.80;99.90;;;;;;4938784;29;20414;-71
2021/05/15 09:12:52;;;;;;;8.97;8.23;;;13.80;99.90;;;;;;4938136;29;20418;-71
2021/05/15 09:15:18;;;;;;;9.53;8.73;;;13.90;99.90;;;;;;4938350;29;20516;-71
2021/05/15 09:17:49;;;;;;;9.73;8.93;;;13.90;99.90;;;;;;4936904;29;20916;-73
2021/05/15 09:20:26;;;;;;;8.83;8.03;;;14.00;99.90;;;;;;4937537;29;20660;-72
2021/05/15 09:22:52;;;;;;;9.10;8.20;;;14.10;99.90;;;;;;4937014;28;20418;-70
2021/05/15 09:25:18;;;;;;;9.13;8.33;;;14.30;99.90;;;;;;4936198;29;20435;-71
2021/05/15 09:27:44;;;;;;;9.07;8.17;;;14.30;99.90;;;;;;4934543;29;20470;-70
2021/05/15 09:30:11;;;;;;;8.27;7.57;;;14.50;99.90;;;;;;4937265;29;20513;-71
2021/05/15 09:32:36;;;;;;;8.83;8.13;;;14.70;99.90;;;;;;4937310;29;20191;-71
2021/05/15 09:35:05;;;;;;;8.73;8.03;;;14.70;99.90;;;;;;4937308;29;20440;-71
2021/05/15 09:37:40;;;;;;;6.27;5.77;;;14.60;99.90;;;;;;4936703;28;20198;-71
2021/05/15 09:40:27;;;;;;;8.47;7.77;;;14.70;99.90;;;;;;4937024;29;20869;-71
2021/05/15 09:42:58;;;;;;;7.50;6.80;;;14.80;99.90;;;;;;4928985;29;20783;-72
2021/05/15 09:45:33;;;;;;;7.70;7.03;;;14.80;99.90;;;;;;4937357;29;20433;-72
2021/05/15 09:48:01;;;;;;;8.07;7.27;;;14.80;99.90;;;;;;4952218;28;21026;-72
2021/05/15 09:50:35;;;;;;;7.60;6.90;;;14.90;99.90;;;;;;4956282;29;20417;-70
2021/05/15 09:53:04;;;;;;;7.03;6.53;;;15.00;99.90;;;;;;4943101;28;21007;-68
2021/05/15 09:55:29;;;;;;;7.07;6.47;;;15.20;99.90;;;;;;4919194;29;20510;-70
2021/05/15 09:57:55;;;;;;;6.90;6.27;;;15.30;99.90;;;;;;4917578;29;20443;-71
2021/05/15 10:00:22;;;;;;;5.70;5.30;;;15.40;99.90;;;;;;4917589;29;20210;-71
2021/05/15 10:02:55;;;;;;;6.70;6.10;;;15.60;99.90;;;;;;4918205;29;20418;-71
2021/05/15 10:05:23;;;;;;;5.47;4.97;;;15.80;99.90;;;;;;4932290;29;20458;-71
2021/05/15 10:07:49;;;;;;;5.20;4.80;;;15.70;99.90;;;;;;4918126;29;20411;-70
2021/05/15 10:10:15;;;;;;;5.37;4.87;;;15.70;99.70;;;;;;4933596;29;20453;-70
2021/05/15 10:12:41;;;;;;;4.97;4.57;;;15.60;99.40;;;;;;4933163;29;20648;-70
2021/05/15 10:15:07;;;;;;;5.07;4.67;;;15.70;99.30;;;;;;4936185;29;20959;-71
2021/05/15 10:17:34;;;;;;;4.60;4.30;;;15.80;99.40;;;;;;4936562;29;20468;-70
2021/05/15 10:20:10;;;;;;;5.10;4.70;;;16.00;99.20;;;;;;4936122;29;20543;-71
2021/05/15 10:22:40;;;;;;;4.93;4.63;;;15.90;99.30;;;;;;4934016;29;20464;-71
2021/05/15 10:25:13;;;;;;;5.63;4.83;;;15.90;99.60;;;;;;4932281;29;20438;-71
2021/05/15 10:27:39;;;;;;;6.23;5.63;;;15.90;99.70;;;;;;4936787;29;20438;-70
2021/05/15 10:30:18;;;;;;;5.20;4.80;;;15.90;99.50;;;;;;4935308;29;20430;-70
2021/05/15 10:32:55;;;;;;;4.63;4.30;;;15.90;98.90;;;;;;4934637;29;20529;-71
2021/05/15 10:35:43;;;;;;;5.10;4.73;;;15.90;98.70;;;;;;4933520;29;20449;-71
2021/05/15 10:38:11;;;;;;;4.93;4.53;;;15.70;98.40;;;;;;4935757;29;20510;-70
2021/05/15 10:40:45;;;;;;;5.37;4.97;;;15.60;98.20;;;;;;4936113;29;20554;-70
2021/05/15 10:43:11;;;;;;;4.63;4.27;;;15.60;98.50;;;;;;4934037;29;20812;-70
2021/05/15 10:45:39;;;;;;;2.83;2.63;;;15.60;98.70;;;;;;4935450;29;20508;-71
2021/05/15 10:48:24;;;;;;;1.67;1.10;;;15.40;97.40;;;;;;4936866;29;20433;-70
2021/05/15 10:51:00;;;;;;;1.40;1.30;;;15.30;96.60;;;;;;4935215;29;20505;-69
2021/05/15 10:53:31;;;;;;;1.97;1.87;;;15.10;97.10;;;;;;4936426;29;20868;-70
2021/05/15 10:56:14;;;;;;;2.67;1.87;;;14.90;98.60;;;;;;4920295;29;20454;-69
2021/05/15 10:58:44;;;;;;;3.30;2.37;;;14.80;99.20;;;;;;4917731;29;20407;-69
2021/05/15 11:01:21;;;;;;;2.53;2.20;;;14.70;99.70;;;;;;4917412;29;20943;-69
2021/05/15 11:03:48;;;;;;;2.40;2.20;;;14.50;99.90;;;;;;4931369;29;20465;-70
2021/05/15 11:06:22;;;;;;;2.43;2.23;;;14.40;99.90;;;;;;4917020;29;20494;-70
2021/05/15 11:09:02;;;;;;;3.33;3.03;;;14.30;99.90;;;;;;4929591;29;20459;-70
2021/05/15 11:11:43;;;;;;;3.57;3.27;;;14.20;99.90;;;;;;4935608;29;20512;-70
2021/05/15 11:14:24;;;;;;;4.20;3.10;;;14.20;99.90;;;;;;4935586;29;20430;-70
2021/05/15 11:17:10;;;;;;;3.63;3.33;;;14.20;99.90;;;;;;4929271;29;20572;-70
2021/05/15 11:19:37;;;;;;;5.25;4.40;;;14.10;99.90;;;;;;4930575;29;20471;-70
2021/05/15 11:22:03;;;;;;;3.57;3.23;;;14.10;99.90;;;;;;4936192;29;20599;-70
2021/05/15 11:24:31;;;;;;;3.00;2.80;;;14.10;99.90;;;;;;4938549;29;20448;-71
2021/05/15 11:27:07;;;;;;;3.33;3.03;;;14.30;99.90;;;;;;4929406;29;20451;-71
2021/05/15 11:29:34;;;;;;;2.53;2.33;;;14.50;99.90;;;;;;4920279;29;20469;-71
2021/05/15 11:32:16;;;;;;;2.80;2.60;;;14.50;99.90;;;;;;4919843;29;20414;-71
2021/05/15 11:34:42;;;;;;;2.43;2.23;;;14.70;99.90;;;;;;4919620;29;20435;-71
2021/05/15 11:37:11;;;;;;;1.83;1.70;;;14.80;99.90;;;;;;4930583;29;20481;-70
2021/05/15 11:39:37;;;;;;;2.10;2.00;;;15.10;99.90;;;;;;4930169;29;20483;-72
2021/05/15 11:42:15;;;;;;;2.63;2.43;;;15.30;99.90;;;;;;4940486;29;20842;-72
2021/05/15 11:44:41;;;;;;;2.90;2.70;;;15.50;99.90;;;;;;4953333;29;20444;-71
2021/05/15 11:47:09;;;;;;;3.07;2.87;;;15.60;99.90;;;;;;4936913;29;20450;-71
2021/05/15 11:49:36;;;;;;;3.00;2.70;;;15.70;99.90;;;;;;4932932;29;20433;-71
2021/05/15 11:52:06;;;;;;;2.83;2.63;;;15.80;99.90;;;;;;4938810;29;20421;-70
2021/05/15 11:54:33;;;;;;;3.37;3.10;;;15.90;99.90;;;;;;4938064;29;20501;-70
2021/05/15 11:57:01;;;;;;;2.27;2.07;;;16.00;99.90;;;;;;4937981;29;20516;-71
2021/05/15 11:59:28;;;;;;;3.33;2.83;;;16.10;99.90;;;;;;4937700;29;20430;-70
2021/05/15 12:01:55;;;;;;;3.60;3.07;;;16.20;99.90;;;;;;4940890;29;20476;-70
2021/05/15 12:04:30;;;;;;;3.00;2.80;;;16.40;99.90;;;;;;4940393;29;20816;-70
2021/05/15 12:07:03;;;;;;;2.63;2.43;;;16.40;99.90;;;;;;4939983;29;20627;-70
2021/05/15 12:09:31;;;;;;;3.20;2.70;;;16.60;99.90;;;;;;4934040;29;20532;-70
2021/05/15 12:11:57;;;;;;;2.53;2.27;;;16.60;99.90;;;;;;4940165;29;20448;-70
2021/05/15 12:14:23;;;;;;;2.40;2.20;;;16.60;99.90;;;;;;4940404;29;20794;-70
2021/05/15 12:16:49;;;;;;;2.17;1.97;;;16.60;99.90;;;;;;4940142;29;20457;-70
2021/05/15 12:19:27;;;;;;;2.23;2.03;;;16.80;99.90;;;;;;4939065;29;20990;-70
2021/05/15 12:22:00;;;;;;;2.53;2.40;;;16.90;99.50;;;;;;4941911;29;20201;-70
2021/05/15 12:24:40;;;;;;;2.13;1.93;;;16.90;99.10;;;;;;4940264;29;20525;-70
2021/05/15 12:27:14;;;;;;;1.50;1.40;;;16.80;97.70;;;;;;4929343;29;20442;-70
2021/05/15 12:29:41;;;;;;;1.80;1.70;;;16.80;97.50;;;;;;4939614;29;20485;-70
2021/05/15 12:32:08;;;;;;;1.90;1.80;;;16.80;97.60;;;;;;4937484;29;20454;-70
2021/05/15 12:34:34;;;;;;;1.50;1.33;;;17.00;97.70;;;;;;4936553;29;20481;-70
2021/05/15 12:36:59;;;;;;;1.60;1.50;;;17.10;97.60;;;;;;4933247;29;20462;-68
2021/05/15 12:39:34;;;;;;;1.57;1.47;;;17.30;96.90;;;;;;4931291;29;20206;-70
2021/05/15 12:42:00;;;;;;;2.40;1.77;;;17.50;96.40;;;;;;4934157;29;20189;-70
2021/05/15 12:44:40;;;;;;;1.20;1.10;;;17.50;95.50;;;;;;4936675;29;20442;-71
2021/05/15 12:47:06;;;;;;;1.43;1.33;;;17.50;94.70;;;;;;4926488;29;20422;-70
2021/05/15 12:49:41;;;;;;;1.40;1.30;;;17.60;94.40;;;;;;4928150;29;20425;-71
2021/05/15 12:52:23;;;;;;;1.20;1.10;;;17.50;93.80;;;;;;4934389;29;20421;-70